Time;durP1;ratioP1;P1;durP2;ratioP2;P2;SDS_P1;SDS_P2;PMS_P1;PMS_P2;Temp;Humidity;BMP_temperature;BMP_pressure;BME280_temperature;BME280_humidity;BME280_pressure;Samples;Min_cycle;Max_cycle;Signal;HPM_P1;HPM_P2
2022/07/17 00:01:56;;;;;;;9.65;7.10;;;;;;;;;;5013574;28;20032;-58
2022/07/17 00:04:22;;;;;;;7.65;6.85;;;;;;;;;;5014838;28;20076;-57
2022/07/17 00:06:48;;;;;;;9.80;6.82;;;;;;;;;;5014999;28;20030;-58
2022/07/17 00:09:14;;;;;;;13.40;7.40;;;;;;;;;;5014601;28;20442;-58
2022/07/17 00:11:41;;;;;;;12.18;7.07;;;;;;;;;;5014542;28;20037;-58
2022/07/17 00:14:07;;;;;;;;;;;;;;;;;;5014923;28;20026;-57
2022/07/17 00:16:33;;;;;;;8.77;6.30;;;;;;;;;;5014648;28;19909;-57
2022/07/17 00:18:59;;;;;;;8.70;6.38;;;;;;;;;;5014418;28;20483;-59
2022/07/17 00:21:25;;;;;;;9.35;7.18;;;;;;;;;;5013199;28;20028;-57
2022/07/17 00:23:52;;;;;;;11.90;7.22;;;;;;;;;;5014533;28;20490;-58
2022/07/17 00:26:18;;;;;;;11.32;6.88;;;;;;;;;;5012936;28;20319;-58
2022/07/17 00:28:44;;;;;;;7.10;6.40;;;;;;;;;;5003625;28;20476;-58
2022/07/17 00:31:10;;;;;;;7.78;6.47;;;;;;;;;;4994646;28;20034;-57
2022/07/17 00:33:36;;;;;;;9.45;7.20;;;;;;;;;;5009107;28;20589;-56
2022/07/17 00:36:03;;;;;;;17.40;8.38;;;;;;;;;;4996708;28;20037;-58
2022/07/17 00:38:29;;;;;;;11.23;8.07;;;;;;;;;;4996589;28;20022;-57
2022/07/17 00:40:58;;;;;;;10.50;6.70;;;;;;;;;;5011084;28;20026;-56
2022/07/17 00:43:26;;;;;;;14.70;8.38;;;;;;;;;;5013948;28;20029;-58
2022/07/17 00:46:05;;;;;;;10.80;7.95;;;;;;;;;;5014022;28;20034;-55
2022/07/17 00:48:32;;;;;;;10.73;7.25;;;;;;;;;;5013951;28;20077;-58
2022/07/17 00:51:01;;;;;;;11.57;7.43;;;;;;;;;;5013922;28;20030;-58
2022/07/17 00:53:28;;;;;;;10.45;7.75;;;;;;;;;;5013839;28;20490;-58
2022/07/17 00:55:55;;;;;;;13.35;7.47;;;;;;;;;;5014274;28;20030;-57
2022/07/17 00:58:23;;;;;;;9.00;7.22;;;;;;;;;;5013797;28;20026;-58
2022/07/17 01:00:49;;;;;;;8.32;7.43;;;;;;;;;;5013692;28;20022;-58
2022/07/17 01:03:16;;;;;;;12.18;7.45;;;;;;;;;;5013759;28;20061;-58
2022/07/17 01:05:42;;;;;;;;;;;;;;;;;;5014147;28;20038;-57
2022/07/17 01:08:08;;;;;;;9.75;6.97;;;;;;;;;;5013638;28;19905;-57
2022/07/17 01:10:34;;;;;;;11.15;7.78;;;;;;;;;;5013221;28;20069;-58
2022/07/17 01:13:00;;;;;;;8.25;7.40;;;;;;;;;;5013504;28;20061;-58
2022/07/17 01:15:26;;;;;;;9.90;8.13;;;;;;;;;;5012287;28;20018;-58
2022/07/17 01:17:53;;;;;;;9.48;7.40;;;;;;;;;;5010790;28;20030;-57
2022/07/17 01:20:19;;;;;;;11.90;7.93;;;;;;;;;;5000265;28;20031;-58
2022/07/17 01:22:46;;;;;;;8.85;7.07;;;;;;;;;;4997077;28;20029;-55
2022/07/17 01:25:12;;;;;;;13.68;7.50;;;;;;;;;;5013303;28;20101;-56
2022/07/17 01:27:39;;;;;;;9.23;7.85;;;;;;;;;;5013448;28;20022;-56
2022/07/17 01:30:05;;;;;;;10.30;6.80;;;;;;;;;;5012970;28;20084;-57
2022/07/17 01:32:35;;;;;;;10.75;7.13;;;;;;;;;;5003788;28;20030;-58
2022/07/17 01:35:02;;;;;;;11.52;7.13;;;;;;;;;;5004146;28;20490;-57
2022/07/17 01:37:28;;;;;;;11.25;7.50;;;;;;;;;;5001711;28;20089;-59
2022/07/17 01:39:54;;;;;;;11.73;7.15;;;;;;;;;;4997520;28;20030;-58
2022/07/17 01:42:21;;;;;;;13.88;7.82;;;;;;;;;;5003527;28;20033;-56
2022/07/17 01:44:47;;;;;;;;;;;;;;;;;;5005438;28;20514;-59
2022/07/17 01:47:16;;;;;;;12.75;7.65;;;;;;;;;;4992746;28;19953;-58
2022/07/17 01:49:46;;;;;;;15.45;8.48;;;;;;;;;;5003182;28;20034;-58
2022/07/17 01:52:12;;;;;;;9.20;7.50;;;;;;;;;;4992966;28;20404;-58
2022/07/17 01:54:39;;;;;;;17.50;7.95;;;;;;;;;;4994199;28;20387;-57
2022/07/17 01:57:05;;;;;;;16.38;8.93;;;;;;;;;;4995745;28;20019;-56
2022/07/17 01:59:31;;;;;;;9.68;8.20;;;;;;;;;;4993525;28;20026;-58
2022/07/17 02:01:57;;;;;;;13.57;8.40;;;;;;;;;;5012367;28;20097;-58
2022/07/17 02:04:23;;;;;;;10.10;9.15;;;;;;;;;;5010047;28;20034;-56
2022/07/17 02:06:49;;;;;;;13.20;8.60;;;;;;;;;;4991639;28;20030;-58
2022/07/17 02:09:15;;;;;;;14.98;8.68;;;;;;;;;;4996589;28;20038;-58
2022/07/17 02:11:41;;;;;;;9.68;8.60;;;;;;;;;;5000108;28;20111;-58
2022/07/17 02:14:07;;;;;;;13.55;9.35;;;;;;;;;;5001434;28;20038;-54
2022/07/17 02:16:33;;;;;;;12.00;9.48;;;;;;;;;;4992974;28;20452;-59
2022/07/17 02:18:59;;;;;;;9.23;8.32;;;;;;;;;;4993656;28;20395;-55
2022/07/17 02:21:25;;;;;;;12.20;8.68;;;;;;;;;;5007481;28;20030;-56
2022/07/17 02:23:51;;;;;;;13.45;9.32;;;;;;;;;;5004599;28;20034;-55
2022/07/17 02:26:17;;;;;;;12.52;9.43;;;;;;;;;;5010184;28;20026;-51
2022/07/17 02:28:43;;;;;;;10.00;8.77;;;;;;;;;;5000825;28;20413;-56
2022/07/17 02:31:09;;;;;;;12.60;9.48;;;;;;;;;;5012179;28;20033;-53
2022/07/17 02:33:35;;;;;;;12.25;9.25;;;;;;;;;;4999884;28;20042;-52
2022/07/17 02:36:01;;;;;;;15.15;11.02;;;;;;;;;;5007854;28;20037;-55
2022/07/17 02:38:28;;;;;;;12.68;9.77;;;;;;;;;;5000183;28;20505;-52
2022/07/17 02:40:54;;;;;;;13.70;11.00;;;;;;;;;;5000145;28;20022;-52
2022/07/17 02:43:20;;;;;;;10.52;9.45;;;;;;;;;;4995505;28;20048;-55
2022/07/17 02:45:46;;;;;;;11.57;10.25;;;;;;;;;;4992443;28;20487;-52
2022/07/17 02:48:12;;;;;;;13.73;11.68;;;;;;;;;;4992317;28;20495;-52
2022/07/17 02:50:38;;;;;;;15.95;11.40;;;;;;;;;;4997522;28;20030;-52
2022/07/17 02:53:04;;;;;;;29.33;14.90;;;;;;;;;;5000813;28;20499;-54
2022/07/17 02:55:30;;;;;;;17.98;14.45;;;;;;;;;;5004028;28;20023;-52
2022/07/17 02:57:56;;;;;;;16.67;14.73;;;;;;;;;;5007308;28;20422;-52
2022/07/17 03:00:23;;;;;;;17.10;14.48;;;;;;;;;;5016273;28;20025;-54
2022/07/17 03:02:49;;;;;;;16.45;13.93;;;;;;;;;;5018381;28;20105;-52
2022/07/17 03:05:16;;;;;;;16.95;14.18;;;;;;;;;;5018362;28;20194;-51
2022/07/17 03:07:43;;;;;;;18.10;12.65;;;;;;;;;;5017934;28;20394;-53
2022/07/17 03:10:10;;;;;;;18.98;13.10;;;;;;;;;;5014489;28;20494;-52
2022/07/17 03:12:36;;;;;;;22.13;13.70;;;;;;;;;;5012237;28;20491;-53
2022/07/17 03:15:02;;;;;;;20.58;13.05;;;;;;;;;;5013335;28;20044;-54
2022/07/17 03:17:28;;;;;;;21.58;12.50;;;;;;;;;;5015970;28;20026;-51
2022/07/17 03:19:54;;;;;;;14.65;12.23;;;;;;;;;;5005861;28;20360;-51
2022/07/17 03:22:20;;;;;;;12.98;11.43;;;;;;;;;;5016291;28;20092;-54
2022/07/17 03:24:46;;;;;;;15.45;11.18;;;;;;;;;;5016621;28;20025;-53
2022/07/17 03:27:12;;;;;;;17.50;10.07;;;;;;;;;;5015816;28;20092;-53
2022/07/17 03:29:38;;;;;;;13.27;10.73;;;;;;;;;;5015575;28;20390;-53
2022/07/17 03:32:05;;;;;;;13.18;10.35;;;;;;;;;;5015973;28;20034;-52
2022/07/17 03:34:31;;;;;;;11.75;9.80;;;;;;;;;;5017786;28;20049;-54
2022/07/17 03:36:57;;;;;;;13.90;10.35;;;;;;;;;;5018136;28;20029;-51
2022/07/17 03:39:23;;;;;;;13.45;9.85;;;;;;;;;;5017924;28;20025;-52
2022/07/17 03:41:49;;;;;;;13.60;10.43;;;;;;;;;;5016013;28;20116;-53
2022/07/17 03:44:15;;;;;;;18.17;9.30;;;;;;;;;;5018053;28;20050;-52
2022/07/17 03:46:41;;;;;;;13.43;9.02;;;;;;;;;;5011820;28;20080;-53
2022/07/17 03:49:10;;;;;;;13.75;9.63;;;;;;;;;;5016502;28;20124;-52
2022/07/17 03:51:36;;;;;;;11.85;9.82;;;;;;;;;;5017213;28;20041;-52
2022/07/17 03:54:02;;;;;;;11.55;9.82;;;;;;;;;;5016629;28;20091;-53
2022/07/17 03:56:28;;;;;;;10.15;9.25;;;;;;;;;;5017679;28;20029;-52
2022/07/17 03:58:54;;;;;;;15.20;10.32;;;;;;;;;;5015725;28;20053;-51
2022/07/17 04:01:20;;;;;;;14.02;9.35;;;;;;;;;;5010087;28;20027;-52
2022/07/17 04:03:46;;;;;;;13.15;10.35;;;;;;;;;;4998175;28;20123;-52
2022/07/17 04:06:12;;;;;;;15.05;9.23;;;;;;;;;;4998218;28;20042;-52
2022/07/17 04:08:38;;;;;;;11.32;9.75;;;;;;;;;;5010610;28;20037;-52
2022/07/17 04:11:05;;;;;;;13.35;9.48;;;;;;;;;;5012894;28;20434;-54
2022/07/17 04:13:31;;;;;;;14.55;8.90;;;;;;;;;;5014344;28;20026;-53
2022/07/17 04:15:59;;;;;;;12.57;9.23;;;;;;;;;;5014658;28;20116;-52
2022/07/17 04:18:27;;;;;;;10.35;8.70;;;;;;;;;;5014670;28;20042;-54
2022/07/17 04:20:53;;;;;;;14.45;9.05;;;;;;;;;;5013316;28;20087;-52
2022/07/17 04:23:19;;;;;;;;;;;;;;;;;;5003726;28;20030;-55
2022/07/17 04:25:45;;;;;;;10.45;8.30;;;;;;;;;;5014394;28;19905;-50
2022/07/17 04:28:12;;;;;;;13.50;7.90;;;;;;;;;;5014408;28;20030;-52
2022/07/17 04:30:38;;;;;;;9.82;8.55;;;;;;;;;;5013838;28;20072;-53
2022/07/17 04:33:04;;;;;;;11.43;7.97;;;;;;;;;;4995638;28;20426;-52
2022/07/17 04:35:30;;;;;;;11.60;8.23;;;;;;;;;;4999210;28;20027;-53
2022/07/17 04:37:57;;;;;;;10.55;8.20;;;;;;;;;;4994718;28;20395;-53
2022/07/17 04:40:23;;;;;;;8.65;7.78;;;;;;;;;;4994309;28;20093;-53
2022/07/17 04:42:49;;;;;;;8.88;7.97;;;;;;;;;;5010331;28;20116;-52
2022/07/17 04:45:15;;;;;;;11.10;7.55;;;;;;;;;;5014121;28;20037;-51
2022/07/17 04:47:41;;;;;;;9.77;8.50;;;;;;;;;;5001148;28;20064;-52
2022/07/17 04:50:08;;;;;;;9.00;7.82;;;;;;;;;;4994400;28;20031;-52
2022/07/17 04:52:34;;;;;;;;;;;;;;;;;;5008243;28;20546;-54
2022/07/17 04:55:00;;;;;;;12.05;8.70;;;;;;;;;;5013883;28;20017;-55
2022/07/17 04:57:26;;;;;;;15.48;8.75;;;;;;;;;;5000265;28;20149;-51
2022/07/17 04:59:52;;;;;;;11.70;8.57;;;;;;;;;;5005759;28;20030;-53
2022/07/17 05:02:18;;;;;;;14.57;8.75;;;;;;;;;;5012411;28;20072;-53
2022/07/17 05:04:44;;;;;;;12.85;8.88;;;;;;;;;;5013873;28;20053;-57
2022/07/17 05:07:10;;;;;;;12.50;8.73;;;;;;;;;;5013842;28;20030;-59
2022/07/17 05:09:36;;;;;;;9.48;8.50;;;;;;;;;;5012849;28;20502;-47
2022/07/17 05:12:03;;;;;;;17.88;9.00;;;;;;;;;;5028898;23;20046;-45
2022/07/17 05:14:29;;;;;;;9.77;7.95;;;;;;;;;;5014033;28;20041;-44
2022/07/17 05:16:55;;;;;;;14.73;8.77;;;;;;;;;;5013107;28;20478;-43
2022/07/17 05:19:22;;;;;;;10.93;8.52;;;;;;;;;;5013193;28;20104;-45
2022/07/17 05:21:49;;;;;;;8.55;7.43;;;;;;;;;;5027768;28;20067;-48
2022/07/17 05:24:15;;;;;;;20.10;8.85;;;;;;;;;;5033790;28;20044;-44
2022/07/17 05:26:41;;;;;;;10.40;7.82;;;;;;;;;;5033337;28;20087;-42
2022/07/17 05:29:07;;;;;;;10.43;8.35;;;;;;;;;;5052125;28;20152;-43
2022/07/17 05:31:33;;;;;;;9.52;8.13;;;;;;;;;;5053428;28;20439;-43
2022/07/17 05:33:59;;;;;;;9.02;7.32;;;;;;;;;;5035724;28;20413;-43
2022/07/17 05:36:25;;;;;;;14.07;8.38;;;;;;;;;;5033124;28;20032;-42
2022/07/17 05:38:51;;;;;;;11.88;7.70;;;;;;;;;;5032568;28;20029;-53
2022/07/17 05:41:17;;;;;;;10.50;8.45;;;;;;;;;;5032444;28;20030;-52
2022/07/17 05:43:43;;;;;;;9.70;8.32;;;;;;;;;;5049119;28;20033;-51
2022/07/17 05:46:09;;;;;;;12.60;7.93;;;;;;;;;;5035041;28;20025;-51
2022/07/17 05:48:35;;;;;;;12.63;8.43;;;;;;;;;;5032553;28;20037;-51
2022/07/17 05:51:01;;;;;;;12.10;8.38;;;;;;;;;;5029901;28;20026;-53
2022/07/17 05:53:27;;;;;;;8.00;6.78;;;;;;;;;;5044323;28;20021;-56
2022/07/17 05:55:53;;;;;;;13.15;8.07;;;;;;;;;;5049207;28;20117;-53
2022/07/17 05:58:19;;;;;;;12.60;8.13;;;;;;;;;;5030602;28;20037;-54
2022/07/17 06:00:46;;;;;;;10.30;8.55;;;;;;;;;;5028988;28;20029;-51
2022/07/17 06:03:12;;;;;;;14.18;7.95;;;;;;;;;;5031713;28;20026;-53
2022/07/17 06:05:38;;;;;;;20.27;7.70;;;;;;;;;;5031143;28;20038;-53
2022/07/17 06:08:04;;;;;;;11.43;7.47;;;;;;;;;;5032273;28;20076;-51
2022/07/17 06:10:30;;;;;;;9.15;6.85;;;;;;;;;;5031820;28;20117;-51
2022/07/17 06:12:57;;;;;;;9.60;7.20;;;;;;;;;;5039647;28;20038;-55
2022/07/17 06:15:23;;;;;;;10.18;6.65;;;;;;;;;;5030878;28;20029;-55
2022/07/17 06:17:50;;;;;;;8.85;6.97;;;;;;;;;;5032227;28;20087;-52
2022/07/17 06:20:16;;;;;;;6.75;6.05;;;;;;;;;;5031917;28;20424;-53
2022/07/17 06:22:43;;;;;;;8.98;6.72;;;;;;;;;;5038933;28;20070;-52
2022/07/17 06:25:09;;;;;;;10.15;5.32;;;;;;;;;;5051595;28;20522;-54
2022/07/17 06:27:35;;;;;;;10.10;6.57;;;;;;;;;;5035700;28;20444;-51
2022/07/17 06:30:01;;;;;;;11.88;6.15;;;;;;;;;;5031768;28;20025;-54
2022/07/17 06:32:28;;;;;;;8.00;5.93;;;;;;;;;;5031345;28;20037;-54
2022/07/17 06:34:54;;;;;;;9.57;5.95;;;;;;;;;;5032941;28;20090;-54
2022/07/17 06:37:20;;;;;;;7.63;4.75;;;;;;;;;;5031380;28;20029;-55
2022/07/17 06:39:46;;;;;;;14.68;5.10;;;;;;;;;;5028747;28;20044;-56
2022/07/17 06:42:12;;;;;;;10.30;4.53;;;;;;;;;;5044759;28;20029;-56
2022/07/17 06:44:38;;;;;;;8.73;3.47;;;;;;;;;;5039740;28;20505;-53
2022/07/17 06:47:04;;;;;;;10.57;3.58;;;;;;;;;;5031610;28;20549;-54
2022/07/17 06:49:30;;;;;;;7.90;3.47;;;;;;;;;;5031726;28;20167;-53
2022/07/17 06:51:56;;;;;;;18.98;3.60;;;;;;;;;;5031580;28;20040;-54
2022/07/17 06:54:25;;;;;;;7.30;2.83;;;;;;;;;;5040987;28;20113;-54
2022/07/17 06:56:51;;;;;;;23.40;5.00;;;;;;;;;;5042740;28;20025;-55
2022/07/17 06:59:17;;;;;;;15.82;3.05;;;;;;;;;;5048587;28;20025;-54
2022/07/17 07:01:43;;;;;;;5.25;3.38;;;;;;;;;;5051204;28;20199;-56
2022/07/17 07:04:09;;;;;;;5.38;2.75;;;;;;;;;;5051105;28;20036;-52
2022/07/17 07:06:35;;;;;;;5.95;3.28;;;;;;;;;;5051430;28;20025;-52
2022/07/17 07:09:01;;;;;;;6.00;3.05;;;;;;;;;;5044378;28;20030;-54
2022/07/17 07:11:28;;;;;;;6.93;3.38;;;;;;;;;;5039945;28;20071;-56
2022/07/17 07:13:54;;;;;;;10.27;3.20;;;;;;;;;;5034020;28;20033;-58
2022/07/17 07:16:20;;;;;;;8.07;3.42;;;;;;;;;;5033139;28;20033;-57
2022/07/17 07:18:46;;;;;;;6.85;2.92;;;;;;;;;;5028181;28;20155;-56
2022/07/17 07:21:12;;;;;;;5.28;3.67;;;;;;;;;;5046120;28;20025;-55
2022/07/17 07:23:39;;;;;;;3.90;2.95;;;;;;;;;;5044944;28;20459;-54
2022/07/17 07:26:05;;;;;;;7.15;3.83;;;;;;;;;;5045906;28;20036;-55
2022/07/17 07:28:31;;;;;;;8.32;4.03;;;;;;;;;;5042643;28;20028;-56
2022/07/17 07:30:57;;;;;;;8.15;3.60;;;;;;;;;;5031393;28;20036;-55
2022/07/17 07:33:23;;;;;;;12.00;3.05;;;;;;;;;;5033148;28;20476;-55
2022/07/17 07:35:49;;;;;;;7.57;3.50;;;;;;;;;;5029904;28;20037;-55
2022/07/17 07:38:15;;;;;;;14.48;3.42;;;;;;;;;;5032363;28;20022;-53
2022/07/17 07:40:41;;;;;;;13.55;3.42;;;;;;;;;;5031279;28;20060;-52
2022/07/17 07:43:07;;;;;;;10.10;3.25;;;;;;;;;;5030214;28;20371;-52
2022/07/17 07:45:34;;;;;;;9.88;3.50;;;;;;;;;;5043542;28;20037;-58
2022/07/17 07:48:00;;;;;;;5.82;2.80;;;;;;;;;;5040922;28;20030;-54
2022/07/17 07:50:28;;;;;;;4.53;3.03;;;;;;;;;;5046683;28;20120;-57
2022/07/17 07:52:54;;;;;;;5.78;3.15;;;;;;;;;;5034628;28;20017;-52
2022/07/17 07:55:21;;;;;;;6.35;4.13;;;;;;;;;;5034729;28;20021;-51
2022/07/17 07:57:47;;;;;;;7.07;3.55;;;;;;;;;;5034327;28;20032;-53
2022/07/17 08:00:13;;;;;;;12.70;3.10;;;;;;;;;;5036447;28;20437;-53
2022/07/17 08:02:40;;;;;;;6.90;2.90;;;;;;;;;;5047398;28;20032;-51
2022/07/17 08:05:06;;;;;;;8.25;3.33;;;;;;;;;;5043595;28;20037;-54
2022/07/17 08:07:32;;;;;;;5.00;3.28;;;;;;;;;;5034057;28;20033;-51
2022/07/17 08:09:58;;;;;;;8.95;3.00;;;;;;;;;;5034376;28;20037;-54
2022/07/17 08:12:25;;;;;;;12.18;3.33;;;;;;;;;;5036410;28;20152;-53
2022/07/17 08:14:51;;;;;;;7.55;3.13;;;;;;;;;;5053996;28;20035;-56
2022/07/17 08:17:19;;;;;;;8.88;3.25;;;;;;;;;;5047878;28;20021;-55
2022/07/17 08:19:45;;;;;;;4.70;3.28;;;;;;;;;;5033991;28;20406;-56
2022/07/17 08:22:12;;;;;;;10.88;3.90;;;;;;;;;;5032942;28;20026;-53
2022/07/17 08:24:38;;;;;;;7.82;3.47;;;;;;;;;;5034368;28;20072;-53
2022/07/17 08:27:04;;;;;;;8.50;3.58;;;;;;;;;;5032941;28;20030;-51
2022/07/17 08:29:30;;;;;;;7.65;3.33;;;;;;;;;;5040658;28;20056;-53
2022/07/17 08:31:56;;;;;;;6.75;3.17;;;;;;;;;;5053891;28;20098;-52
2022/07/17 08:34:23;;;;;;;7.70;3.35;;;;;;;;;;5053882;28;20025;-55
2022/07/17 08:36:49;;;;;;;7.63;3.35;;;;;;;;;;5053998;28;20049;-53
2022/07/17 08:39:15;;;;;;;6.88;3.90;;;;;;;;;;5053750;28;20489;-54
2022/07/17 08:41:41;;;;;;;8.90;3.42;;;;;;;;;;5053799;28;20112;-53
2022/07/17 08:44:08;;;;;;;17.98;3.58;;;;;;;;;;5041020;28;20030;-56
2022/07/17 08:46:38;;;;;;;8.43;3.38;;;;;;;;;;5033704;28;20037;-54
2022/07/17 08:49:05;;;;;;;9.75;3.35;;;;;;;;;;5033519;28;20056;-52
2022/07/17 08:51:31;;;;;;;8.68;3.85;;;;;;;;;;5033630;28;20032;-54
2022/07/17 08:53:58;;;;;;;6.25;3.22;;;;;;;;;;5033773;28;20551;-55
2022/07/17 08:56:24;;;;;;;4.85;3.30;;;;;;;;;;5033600;28;20382;-53
2022/07/17 08:58:50;;;;;;;13.27;4.43;;;;;;;;;;5033457;28;20022;-55
2022/07/17 09:01:17;;;;;;;3.30;3.00;;;;;;;;;;5033435;28;20029;-53
2022/07/17 09:03:53;;;;;;;6.57;3.22;;;;;;;;;;5033614;28;20033;-54
2022/07/17 09:06:20;;;;;;;8.85;3.40;;;;;;;;;;5033559;28;20460;-55
2022/07/17 09:08:46;;;;;;;8.73;3.58;;;;;;;;;;5033295;28;20033;-55
2022/07/17 09:11:12;;;;;;;9.35;3.40;;;;;;;;;;5033389;28;20494;-56
2022/07/17 09:13:43;;;;;;;7.05;3.30;;;;;;;;;;5033306;28;20457;-54
2022/07/17 09:16:13;;;;;;;8.73;3.85;;;;;;;;;;5032119;28;20022;-55
2022/07/17 09:18:57;;;;;;;5.70;3.47;;;;;;;;;;5033171;28;20474;-56
2022/07/17 09:21:25;;;;;;;7.00;3.95;;;;;;;;;;5031850;28;20405;-53
2022/07/17 09:24:01;;;;;;;6.53;3.47;;;;;;;;;;5033074;28;20075;-53
2022/07/17 09:26:27;;;;;;;10.25;3.83;;;;;;;;;;5033003;28;20025;-54
2022/07/17 09:28:54;;;;;;;5.22;3.70;;;;;;;;;;5032977;28;20037;-54
2022/07/17 09:31:26;;;;;;;5.57;3.25;;;;;;;;;;5032984;28;20022;-55
2022/07/17 09:33:53;;;;;;;13.57;3.33;;;;;;;;;;5032870;28;20105;-54
2022/07/17 09:36:19;;;;;;;7.80;4.13;;;;;;;;;;5032772;28;20441;-55
2022/07/17 09:38:45;;;;;;;7.53;3.40;;;;;;;;;;5032531;28;20104;-53
2022/07/17 09:41:12;;;;;;;9.10;4.30;;;;;;;;;;5032920;28;20432;-57
2022/07/17 09:43:44;;;;;;;7.55;3.95;;;;;;;;;;5032692;28;20022;-56
2022/07/17 09:46:12;;;;;;;6.32;3.30;;;;;;;;;;5032713;28;20021;-54
2022/07/17 09:48:41;;;;;;;5.50;3.35;;;;;;;;;;5032444;28;20033;-54
2022/07/17 09:51:07;;;;;;;7.88;3.50;;;;;;;;;;5032358;28;20561;-55
2022/07/17 09:53:35;;;;;;;10.23;4.15;;;;;;;;;;5031032;28;20040;-56
2022/07/17 09:56:02;;;;;;;8.90;3.95;;;;;;;;;;5032498;28;20075;-55
2022/07/17 09:58:29;;;;;;;9.30;3.55;;;;;;;;;;5032585;28;20382;-54
2022/07/17 10:00:55;;;;;;;4.88;3.38;;;;;;;;;;5032207;28;20017;-55
2022/07/17 10:03:21;;;;;;;9.35;3.15;;;;;;;;;;5032351;28;20033;-55
2022/07/17 10:05:47;;;;;;;7.85;3.80;;;;;;;;;;5032203;28;20151;-56
2022/07/17 10:08:13;;;;;;;9.65;3.45;;;;;;;;;;5030442;28;20026;-55
2022/07/17 10:10:41;;;;;;;5.07;3.25;;;;;;;;;;5031974;28;20080;-52
2022/07/17 10:13:07;;;;;;;7.63;3.50;;;;;;;;;;5031739;28;20021;-54
2022/07/17 10:15:33;;;;;;;8.85;3.80;;;;;;;;;;5031948;28;20478;-54
2022/07/17 10:18:06;;;;;;;5.75;3.42;;;;;;;;;;5032084;28;20097;-52
2022/07/17 10:20:32;;;;;;;7.18;3.60;;;;;;;;;;5031869;28;20445;-50
2022/07/17 10:22:58;;;;;;;6.32;3.83;;;;;;;;;;5032628;28;20021;-50
2022/07/17 10:25:24;;;;;;;6.28;3.67;;;;;;;;;;5030872;28;20040;-50
2022/07/17 10:27:55;;;;;;;6.45;3.70;;;;;;;;;;5032107;28;20024;-52
2022/07/17 10:30:26;;;;;;;5.60;3.75;;;;;;;;;;5031827;28;20053;-52
2022/07/17 10:32:55;;;;;;;8.70;3.53;;;;;;;;;;5032070;28;20052;-50
2022/07/17 10:35:21;;;;;;;6.97;3.85;;;;;;;;;;5031964;28;20061;-51
2022/07/17 10:37:47;;;;;;;12.02;3.83;;;;;;;;;;5031981;28;20363;-53
2022/07/17 10:40:24;;;;;;;6.38;3.60;;;;;;;;;;5031659;28;20541;-54
2022/07/17 10:43:00;;;;;;;5.72;3.85;;;;;;;;;;5038110;28;20028;-56
2022/07/17 10:45:39;;;;;;;7.88;4.30;;;;;;;;;;5045277;28;20030;-51
2022/07/17 10:48:07;;;;;;;7.88;3.63;;;;;;;;;;5044053;28;20028;-54
2022/07/17 10:50:52;;;;;;;9.93;4.22;;;;;;;;;;5050416;28;20025;-55
2022/07/17 10:53:20;;;;;;;8.20;3.17;;;;;;;;;;5051604;28;20017;-57
2022/07/17 10:55:47;;;;;;;7.53;3.63;;;;;;;;;;5051528;28;20540;-56
2022/07/17 10:58:14;;;;;;;7.75;3.40;;;;;;;;;;5033516;28;20048;-56
2022/07/17 11:00:40;;;;;;;8.77;4.10;;;;;;;;;;5034257;28;20025;-55
2022/07/17 11:03:10;;;;;;;5.85;3.38;;;;;;;;;;5051209;28;20025;-53
2022/07/17 11:05:36;;;;;;;5.05;2.92;;;;;;;;;;5050924;28;20025;-55
2022/07/17 11:08:08;;;;;;;6.82;3.95;;;;;;;;;;5051593;28;20021;-57
2022/07/17 11:13:08;;;;;;;4.38;3.15;;;;;;;;;;5012539;28;19983;-49
2022/07/17 11:15:40;;;;;;;9.52;4.30;;;;;;;;;;5019561;28;20650;-48
2022/07/17 11:18:18;;;;;;;7.10;4.07;;;;;;;;;;5009510;28;20033;-49
2022/07/17 11:20:52;;;;;;;7.85;3.65;;;;;;;;;;5008044;28;20022;-48
2022/07/17 11:23:19;;;;;;;7.80;4.18;;;;;;;;;;4992909;28;20058;-48
2022/07/17 11:25:54;;;;;;;8.85;3.65;;;;;;;;;;4995255;28;20022;-49
2022/07/17 11:28:35;;;;;;;5.65;3.20;;;;;;;;;;4993960;28;20030;-49
2022/07/17 11:31:02;;;;;;;6.47;3.38;;;;;;;;;;4996110;28;20031;-48
2022/07/17 11:33:28;;;;;;;9.20;4.30;;;;;;;;;;5006084;28;20044;-48
2022/07/17 11:35:54;;;;;;;5.85;3.67;;;;;;;;;;5014231;28;20397;-48
2022/07/17 11:38:30;;;;;;;3.70;3.25;;;;;;;;;;5015234;28;20514;-49
2022/07/17 11:40:56;;;;;;;4.85;4.00;;;;;;;;;;5002112;28;20045;-50
2022/07/17 11:43:23;;;;;;;6.20;3.17;;;;;;;;;;4997500;28;20507;-48
2022/07/17 11:45:49;;;;;;;7.25;3.72;;;;;;;;;;5014934;28;20032;-49
2022/07/17 11:48:15;;;;;;;9.02;3.38;;;;;;;;;;5013722;28;20445;-48
2022/07/17 11:50:41;;;;;;;10.07;3.58;;;;;;;;;;5009056;28;20109;-48
2022/07/17 11:53:07;;;;;;;8.25;3.30;;;;;;;;;;5002017;28;20062;-48
2022/07/17 11:55:40;;;;;;;8.18;3.88;;;;;;;;;;5013964;28;20037;-49
2022/07/17 11:58:07;;;;;;;8.95;3.45;;;;;;;;;;4999761;28;20031;-49
2022/07/17 12:00:33;;;;;;;12.63;3.58;;;;;;;;;;4995186;28;20566;-49
2022/07/17 12:03:02;;;;;;;8.20;3.90;;;;;;;;;;5000336;28;20587;-50
2022/07/17 12:05:29;;;;;;;6.57;3.28;;;;;;;;;;5014583;28;20060;-50
2022/07/17 12:07:55;;;;;;;3.80;2.88;;;;;;;;;;5002587;28;20030;-49
2022/07/17 12:10:24;;;;;;;8.50;4.28;;;;;;;;;;4995120;28;20510;-48
2022/07/17 12:12:57;;;;;;;3.70;3.17;;;;;;;;;;4998940;28;20092;-49
2022/07/17 12:15:40;;;;;;;7.65;3.47;;;;;;;;;;4995189;28;20105;-49
2022/07/17 12:18:09;;;;;;;8.82;3.92;;;;;;;;;;5008409;28;20057;-49
2022/07/17 12:20:45;;;;;;;6.20;3.38;;;;;;;;;;5014425;28;20021;-48
2022/07/17 12:23:27;;;;;;;4.63;3.40;;;;;;;;;;5004779;28;20117;-48
2022/07/17 12:26:03;;;;;;;5.82;3.20;;;;;;;;;;4995057;28;20023;-48
2022/07/17 12:28:30;;;;;;;4.25;3.85;;;;;;;;;;5002120;28;20030;-48
2022/07/17 12:30:56;;;;;;;7.28;3.00;;;;;;;;;;4993910;28;20033;-48
2022/07/17 12:33:22;;;;;;;5.57;3.00;;;;;;;;;;5009360;28;20030;-48
2022/07/17 12:35:48;;;;;;;6.38;3.63;;;;;;;;;;5014156;28;20032;-48
2022/07/17 12:38:14;;;;;;;6.00;3.35;;;;;;;;;;5014434;28;20080;-49
2022/07/17 12:40:41;;;;;;;6.18;3.17;;;;;;;;;;5014295;28;20052;-48
2022/07/17 12:43:07;;;;;;;3.97;3.33;;;;;;;;;;5002282;28;20034;-48
2022/07/17 12:45:33;;;;;;;9.85;3.33;;;;;;;;;;4994490;28;20022;-49
2022/07/17 12:47:59;;;;;;;8.57;3.97;;;;;;;;;;4993338;28;20065;-48
2022/07/17 12:50:25;;;;;;;9.50;3.10;;;;;;;;;;5005510;28;20470;-48
2022/07/17 12:52:51;;;;;;;4.07;3.13;;;;;;;;;;5004694;28;20030;-48
2022/07/17 12:55:17;;;;;;;4.90;3.22;;;;;;;;;;4994447;28;20026;-49
2022/07/17 12:57:43;;;;;;;;;;;;;;;;;;5001394;28;20065;-48
2022/07/17 13:00:09;;;;;;;6.88;3.33;;;;;;;;;;4997839;28;19948;-48
2022/07/17 13:02:35;;;;;;;4.38;3.42;;;;;;;;;;5002088;28;20026;-48
2022/07/17 13:05:01;;;;;;;7.90;2.95;;;;;;;;;;5013789;28;20029;-49
2022/07/17 13:07:27;;;;;;;6.03;2.67;;;;;;;;;;5013947;28;20113;-49
2022/07/17 13:09:55;;;;;;;4.85;3.17;;;;;;;;;;5012460;28;20084;-49
2022/07/17 13:12:21;;;;;;;6.20;3.45;;;;;;;;;;4998510;28;20022;-49
2022/07/17 13:14:47;;;;;;;;;;;;;;;;;;5013883;28;20037;-48
2022/07/17 13:17:13;;;;;;;9.80;3.38;;;;;;;;;;5012392;28;19905;-49
2022/07/17 13:19:39;;;;;;;10.07;3.42;;;;;;;;;;5013290;28;20026;-49
2022/07/17 13:22:05;;;;;;;4.15;3.63;;;;;;;;;;5011572;28;20113;-49
2022/07/17 13:24:32;;;;;;;5.10;2.85;;;;;;;;;;5013577;28;20168;-49
2022/07/17 13:26:58;;;;;;;;;;;;;;;;;;4995079;28;20030;-49
2022/07/17 13:29:26;;;;;;;6.93;3.05;;;;;;;;;;5012093;28;19956;-49
2022/07/17 13:31:52;;;;;;;5.95;2.90;;;;;;;;;;4979476;28;20065;-50
2022/07/17 13:34:18;;;;;;;9.02;3.47;;;;;;;;;;4974189;28;20077;-50
2022/07/17 13:36:44;;;;;;;4.85;2.58;;;;;;;;;;4987491;28;20126;-50
2022/07/17 13:39:10;;;;;;;6.47;3.00;;;;;;;;;;4993482;28;20027;-49
2022/07/17 13:41:40;;;;;;;4.95;2.95;;;;;;;;;;5006681;28;20030;-50
2022/07/17 13:44:06;;;;;;;9.35;4.28;;;;;;;;;;5007471;28;20116;-50
2022/07/17 13:46:32;;;;;;;4.32;3.50;;;;;;;;;;5013051;28;20394;-49
2022/07/17 13:48:58;;;;;;;5.30;2.70;;;;;;;;;;5012711;28;20034;-50
2022/07/17 13:51:26;;;;;;;6.53;2.83;;;;;;;;;;5001119;28;20105;-46
2022/07/17 13:53:52;;;;;;;7.38;2.90;;;;;;;;;;5003018;28;20145;-49
2022/07/17 13:56:18;;;;;;;10.55;3.95;;;;;;;;;;4992980;28;20022;-47
2022/07/17 13:58:45;;;;;;;7.43;3.00;;;;;;;;;;5006251;28;20026;-48
2022/07/17 14:01:14;;;;;;;6.25;2.33;;;;;;;;;;5002442;28;20034;-47
2022/07/17 14:03:40;;;;;;;17.17;3.13;;;;;;;;;;4992705;28;20394;-48
2022/07/17 14:06:07;;;;;;;6.47;2.42;;;;;;;;;;4993119;28;20081;-48
2022/07/17 14:08:33;;;;;;;5.70;3.28;;;;;;;;;;4992684;28;20569;-48
2022/07/17 14:10:59;;;;;;;4.60;2.35;;;;;;;;;;4991422;28;20060;-48
2022/07/17 14:13:25;;;;;;;4.55;3.03;;;;;;;;;;4993179;28;20037;-48
2022/07/17 14:15:52;;;;;;;4.20;2.75;;;;;;;;;;4993093;28;20392;-47
2022/07/17 14:18:18;;;;;;;8.02;2.97;;;;;;;;;;5001930;28;20104;-48
2022/07/17 14:20:44;;;;;;;4.25;2.80;;;;;;;;;;5006863;28;20026;-47
2022/07/17 14:23:10;;;;;;;2.92;2.30;;;;;;;;;;4992925;28;20399;-47
2022/07/17 14:25:36;;;;;;;2.92;2.55;;;;;;;;;;4992831;28;20356;-48
2022/07/17 14:28:02;;;;;;;3.97;2.58;;;;;;;;;;5005407;28;20028;-47
2022/07/17 14:30:29;;;;;;;17.48;2.78;;;;;;;;;;4993655;28;20033;-48
2022/07/17 14:32:55;;;;;;;3.45;2.50;;;;;;;;;;4994047;28;20529;-47
2022/07/17 14:35:21;;;;;;;3.38;2.53;;;;;;;;;;4989490;28;20034;-48
2022/07/17 14:37:48;;;;;;;5.13;3.13;;;;;;;;;;4990618;28;20058;-47
2022/07/17 14:40:14;;;;;;;8.90;3.47;;;;;;;;;;4987872;28;20023;-48